sensor_id;sensor_type;location;lat;lon;timestamp;P1;durP1;ratioP1;P2;durP2;ratioP2
23310;SDS011;11828;51.508;18.118;2022-09-21T00:01:14;17.73;;;6.35;;
23310;SDS011;11828;51.508;18.118;2022-09-21T00:03:51;16.25;;;6.40;;
23310;SDS011;11828;51.508;18.118;2022-09-21T00:06:20;14.77;;;6.10;;
23310;SDS011;11828;51.508;18.118;2022-09-21T00:08:48;16.38;;;6.22;;
23310;SDS011;11828;51.508;18.118;2022-09-21T00:11:16;15.75;;;6.45;;
23310;SDS011;11828;51.508;18.118;2022-09-21T00:13:45;14.32;;;5.82;;
23310;SDS011;11828;51.508;18.118;2022-09-21T00:16:12;18.48;;;6.30;;
23310;SDS011;11828;51.508;18.118;2022-09-21T00:18:39;14.88;;;6.07;;
23310;SDS011;11828;51.508;18.118;2022-09-21T00:21:06;16.73;;;6.20;;
23310;SDS011;11828;51.508;18.118;2022-09-21T00:23:35;16.17;;;6.10;;
23310;SDS011;11828;51.508;18.118;2022-09-21T00:26:05;17.98;;;6.10;;
23310;SDS011;11828;51.508;18.118;2022-09-21T00:28:43;20.67;;;6.35;;
23310;SDS011;11828;51.508;18.118;2022-09-21T00:31:10;30.38;;;7.10;;
23310;SDS011;11828;51.508;18.118;2022-09-21T00:33:40;15.30;;;6.00;;
23310;SDS011;11828;51.508;18.118;2022-09-21T00:36:08;19.17;;;6.28;;
23310;SDS011;11828;51.508;18.118;2022-09-21T00:38:41;23.33;;;6.72;;
23310;SDS011;11828;51.508;18.118;2022-09-21T00:41:09;23.75;;;7.07;;
23310;SDS011;11828;51.508;18.118;2022-09-21T00:43:37;15.65;;;6.22;;
23310;SDS011;11828;51.508;18.118;2022-09-21T00:46:14;15.18;;;6.38;;
23310;SDS011;11828;51.508;18.118;2022-09-21T00:48:50;15.18;;;6.05;;
23310;SDS011;11828;51.508;18.118;2022-09-21T00:51:17;15.60;;;6.70;;
23310;SDS011;11828;51.508;18.118;2022-09-21T00:53:43;11.52;;;5.70;;
23310;SDS011;11828;51.508;18.118;2022-09-21T00:56:10;18.33;;;6.28;;
23310;SDS011;11828;51.508;18.118;2022-09-21T00:58:38;16.67;;;6.60;;
23310;SDS011;11828;51.508;18.118;2022-09-21T01:01:11;19.45;;;6.55;;
23310;SDS011;11828;51.508;18.118;2022-09-21T01:03:40;22.90;;;6.60;;
23310;SDS011;11828;51.508;18.118;2022-09-21T01:06:10;28.77;;;7.90;;
23310;SDS011;11828;51.508;18.118;2022-09-21T01:08:38;18.85;;;6.50;;
23310;SDS011;11828;51.508;18.118;2022-09-21T01:19:41;18.00;;;6.90;;
23310;SDS011;11828;51.508;18.118;2022-09-21T01:22:49;29.90;;;7.38;;
23310;SDS011;11828;51.508;18.118;2022-09-21T01:25:55;18.58;;;6.45;;
23310;SDS011;11828;51.508;18.118;2022-09-21T01:31:21;22.95;;;6.65;;
23310;SDS011;11828;51.508;18.118;2022-09-21T01:34:06;15.32;;;6.18;;
23310;SDS011;11828;51.508;18.118;2022-09-21T01:36:40;18.83;;;6.03;;
23310;SDS011;11828;51.508;18.118;2022-09-21T01:39:12;12.43;;;6.07;;
23310;SDS011;11828;51.508;18.118;2022-09-21T01:41:40;13.65;;;5.85;;
23310;SDS011;11828;51.508;18.118;2022-09-21T01:44:11;14.20;;;5.72;;
23310;SDS011;11828;51.508;18.118;2022-09-21T01:46:44;13.57;;;5.60;;
23310;SDS011;11828;51.508;18.118;2022-09-21T01:49:14;18.10;;;5.93;;
23310;SDS011;11828;51.508;18.118;2022-09-21T01:51:47;11.07;;;5.47;;
23310;SDS011;11828;51.508;18.118;2022-09-21T01:55:02;17.08;;;5.60;;
23310;SDS011;11828;51.508;18.118;2022-09-21T01:57:27;15.20;;;5.60;;
23310;SDS011;11828;51.508;18.118;2022-09-21T02:00:04;12.32;;;5.22;;
23310;SDS011;11828;51.508;18.118;2022-09-21T02:05:24;8.80;;;5.07;;
23310;SDS011;11828;51.508;18.118;2022-09-21T02:07:52;14.63;;;5.68;;
23310;SDS011;11828;51.508;18.118;2022-09-21T02:10:23;248.55;;;84.00;;
23310;SDS011;11828;51.508;18.118;2022-09-21T02:12:57;237.57;;;77.53;;
23310;SDS011;11828;51.508;18.118;2022-09-21T02:16:18;304.60;;;213.20;;
23310;SDS011;11828;51.508;18.118;2022-09-21T02:24:43;244.50;;;76.00;;
23310;SDS011;11828;51.508;18.118;2022-09-21T02:32:53;230.18;;;73.88;;
23310;SDS011;11828;51.508;18.118;2022-09-21T02:35:52;303.02;;;219.15;;
23310;SDS011;11828;51.508;18.118;2022-09-21T02:41:09;244.82;;;76.60;;
23310;SDS011;11828;51.508;18.118;2022-09-21T02:43:46;242.30;;;77.35;;
23310;SDS011;11828;51.508;18.118;2022-09-21T02:46:25;61.80;;;49.03;;
23310;SDS011;11828;51.508;18.118;2022-09-21T02:49:18;222.52;;;76.72;;
23310;SDS011;11828;51.508;18.118;2022-09-21T02:51:53;239.38;;;76.03;;
23310;SDS011;11828;51.508;18.118;2022-09-21T02:54:25;238.80;;;75.28;;
23310;SDS011;11828;51.508;18.118;2022-09-21T02:56:55;240.50;;;75.30;;
23310;SDS011;11828;51.508;18.118;2022-09-21T02:59:24;246.98;;;77.72;;
23310;SDS011;11828;51.508;18.118;2022-09-21T03:01:50;240.60;;;76.82;;
23310;SDS011;11828;51.508;18.118;2022-09-21T03:04:17;261.98;;;78.03;;
23310;SDS011;11828;51.508;18.118;2022-09-21T03:06:43;256.92;;;78.00;;
23310;SDS011;11828;51.508;18.118;2022-09-21T03:09:09;244.35;;;77.05;;
23310;SDS011;11828;51.508;18.118;2022-09-21T03:11:36;245.93;;;77.60;;
23310;SDS011;11828;51.508;18.118;2022-09-21T03:14:02;240.93;;;76.55;;
23310;SDS011;11828;51.508;18.118;2022-09-21T03:16:35;251.10;;;76.45;;
23310;SDS011;11828;51.508;18.118;2022-09-21T03:19:03;239.65;;;75.03;;
23310;SDS011;11828;51.508;18.118;2022-09-21T03:21:30;287.73;;;83.90;;
23310;SDS011;11828;51.508;18.118;2022-09-21T03:23:56;250.18;;;77.38;;
23310;SDS011;11828;51.508;18.118;2022-09-21T03:26:22;263.27;;;78.75;;
23310;SDS011;11828;51.508;18.118;2022-09-21T03:28:48;249.55;;;79.28;;
23310;SDS011;11828;51.508;18.118;2022-09-21T03:31:15;243.43;;;76.10;;
23310;SDS011;11828;51.508;18.118;2022-09-21T03:33:41;247.32;;;78.32;;
23310;SDS011;11828;51.508;18.118;2022-09-21T03:36:07;243.73;;;77.25;;
23310;SDS011;11828;51.508;18.118;2022-09-21T03:38:34;249.38;;;77.03;;
23310;SDS011;11828;51.508;18.118;2022-09-21T03:41:00;246.88;;;76.95;;
23310;SDS011;11828;51.508;18.118;2022-09-21T03:43:26;242.85;;;76.97;;
23310;SDS011;11828;51.508;18.118;2022-09-21T03:45:52;247.77;;;78.18;;
23310;SDS011;11828;51.508;18.118;2022-09-21T03:48:18;242.40;;;76.03;;
23310;SDS011;11828;51.508;18.118;2022-09-21T03:50:45;244.55;;;78.55;;
23310;SDS011;11828;51.508;18.118;2022-09-21T03:53:12;244.43;;;77.80;;
23310;SDS011;11828;51.508;18.118;2022-09-21T03:55:39;239.10;;;76.70;;
23310;SDS011;11828;51.508;18.118;2022-09-21T03:58:06;245.63;;;75.95;;
23310;SDS011;11828;51.508;18.118;2022-09-21T04:00:33;243.82;;;78.30;;
23310;SDS011;11828;51.508;18.118;2022-09-21T04:03:00;240.48;;;76.30;;
23310;SDS011;11828;51.508;18.118;2022-09-21T04:05:26;242.43;;;76.05;;
23310;SDS011;11828;51.508;18.118;2022-09-21T04:07:53;246.85;;;79.38;;
23310;SDS011;11828;51.508;18.118;2022-09-21T04:10:21;247.00;;;79.72;;
23310;SDS011;11828;51.508;18.118;2022-09-21T04:12:51;241.60;;;75.68;;
23310;SDS011;11828;51.508;18.118;2022-09-21T04:15:22;249.07;;;78.03;;
23310;SDS011;11828;51.508;18.118;2022-09-21T04:17:51;242.88;;;77.57;;
23310;SDS011;11828;51.508;18.118;2022-09-21T04:20:18;242.63;;;76.20;;
23310;SDS011;11828;51.508;18.118;2022-09-21T04:22:45;240.77;;;76.80;;
23310;SDS011;11828;51.508;18.118;2022-09-21T04:25:12;241.80;;;80.05;;
23310;SDS011;11828;51.508;18.118;2022-09-21T04:27:39;248.32;;;78.68;;
23310;SDS011;11828;51.508;18.118;2022-09-21T04:30:06;241.68;;;77.22;;
23310;SDS011;11828;51.508;18.118;2022-09-21T04:32:33;246.35;;;78.78;;
23310;SDS011;11828;51.508;18.118;2022-09-21T04:34:59;247.18;;;78.00;;
23310;SDS011;11828;51.508;18.118;2022-09-21T04:37:25;263.20;;;81.47;;
23310;SDS011;11828;51.508;18.118;2022-09-21T04:39:52;246.95;;;77.78;;
23310;SDS011;11828;51.508;18.118;2022-09-21T04:42:17;244.07;;;76.93;;
23310;SDS011;11828;51.508;18.118;2022-09-21T04:44:44;248.18;;;79.10;;
23310;SDS011;11828;51.508;18.118;2022-09-21T04:47:10;247.23;;;78.85;;
23310;SDS011;11828;51.508;18.118;2022-09-21T04:49:36;245.98;;;78.18;;
23310;SDS011;11828;51.508;18.118;2022-09-21T04:52:02;243.32;;;77.63;;
23310;SDS011;11828;51.508;18.118;2022-09-21T04:54:28;251.30;;;93.38;;
23310;SDS011;11828;51.508;18.118;2022-09-21T04:56:54;247.13;;;78.78;;
23310;SDS011;11828;51.508;18.118;2022-09-21T04:59:21;246.75;;;79.00;;
23310;SDS011;11828;51.508;18.118;2022-09-21T05:01:47;247.10;;;77.72;;
23310;SDS011;11828;51.508;18.118;2022-09-21T05:04:13;245.55;;;78.93;;
23310;SDS011;11828;51.508;18.118;2022-09-21T05:06:39;243.82;;;79.05;;
23310;SDS011;11828;51.508;18.118;2022-09-21T05:09:05;246.90;;;78.65;;
23310;SDS011;11828;51.508;18.118;2022-09-21T05:11:51;265.92;;;80.13;;
23310;SDS011;11828;51.508;18.118;2022-09-21T05:14:17;246.32;;;79.32;;
23310;SDS011;11828;51.508;18.118;2022-09-21T05:16:43;248.35;;;82.13;;
23310;SDS011;11828;51.508;18.118;2022-09-21T05:19:09;251.65;;;80.13;;
23310;SDS011;11828;51.508;18.118;2022-09-21T05:21:35;256.27;;;80.97;;
23310;SDS011;11828;51.508;18.118;2022-09-21T05:24:01;242.88;;;77.32;;
23310;SDS011;11828;51.508;18.118;2022-09-21T05:26:28;247.85;;;79.53;;
23310;SDS011;11828;51.508;18.118;2022-09-21T05:28:54;250.30;;;81.60;;
23310;SDS011;11828;51.508;18.118;2022-09-21T05:34:32;249.98;;;79.15;;
23310;SDS011;11828;51.508;18.118;2022-09-21T05:40:22;248.35;;;77.28;;
23310;SDS011;11828;51.508;18.118;2022-09-21T05:42:49;251.90;;;77.90;;
23310;SDS011;11828;51.508;18.118;2022-09-21T05:45:16;253.02;;;78.75;;
23310;SDS011;11828;51.508;18.118;2022-09-21T05:50:43;251.60;;;77.35;;
23310;SDS011;11828;51.508;18.118;2022-09-21T05:53:47;250.30;;;78.78;;
23310;SDS011;11828;51.508;18.118;2022-09-21T06:02:18;253.15;;;78.57;;
23310;SDS011;11828;51.508;18.118;2022-09-21T06:05:15;287.38;;;85.57;;
23310;SDS011;11828;51.508;18.118;2022-09-21T06:07:41;256.23;;;80.22;;
23310;SDS011;11828;51.508;18.118;2022-09-21T06:10:08;261.80;;;81.35;;
23310;SDS011;11828;51.508;18.118;2022-09-21T06:12:37;256.77;;;80.40;;
23310;SDS011;11828;51.508;18.118;2022-09-21T06:15:04;262.83;;;80.82;;
23310;SDS011;11828;51.508;18.118;2022-09-21T06:17:32;265.33;;;80.88;;
23310;SDS011;11828;51.508;18.118;2022-09-21T06:19:58;256.08;;;80.05;;
23310;SDS011;11828;51.508;18.118;2022-09-21T06:22:24;255.20;;;78.45;;
23310;SDS011;11828;51.508;18.118;2022-09-21T06:24:50;269.92;;;79.43;;
23310;SDS011;11828;51.508;18.118;2022-09-21T06:27:16;253.82;;;78.00;;
23310;SDS011;11828;51.508;18.118;2022-09-21T06:29:42;269.55;;;79.80;;
23310;SDS011;11828;51.508;18.118;2022-09-21T06:32:08;257.33;;;81.63;;
23310;SDS011;11828;51.508;18.118;2022-09-21T06:34:34;251.18;;;80.50;;
23310;SDS011;11828;51.508;18.118;2022-09-21T06:37:02;267.92;;;81.00;;
23310;SDS011;11828;51.508;18.118;2022-09-21T06:39:28;256.85;;;78.72;;
23310;SDS011;11828;51.508;18.118;2022-09-21T06:41:54;255.73;;;78.72;;
23310;SDS011;11828;51.508;18.118;2022-09-21T06:44:20;265.73;;;82.20;;
23310;SDS011;11828;51.508;18.118;2022-09-21T06:46:46;271.88;;;82.32;;
23310;SDS011;11828;51.508;18.118;2022-09-21T06:49:12;261.55;;;82.88;;
23310;SDS011;11828;51.508;18.118;2022-09-21T06:51:38;272.92;;;84.38;;
23310;SDS011;11828;51.508;18.118;2022-09-21T06:54:04;271.08;;;83.38;;
23310;SDS011;11828;51.508;18.118;2022-09-21T06:56:32;266.35;;;84.55;;
23310;SDS011;11828;51.508;18.118;2022-09-21T06:58:58;280.60;;;89.57;;
23310;SDS011;11828;51.508;18.118;2022-09-21T07:01:24;261.85;;;83.82;;
23310;SDS011;11828;51.508;18.118;2022-09-21T07:03:50;269.25;;;85.63;;
23310;SDS011;11828;51.508;18.118;2022-09-21T07:06:17;269.27;;;86.63;;
23310;SDS011;11828;51.508;18.118;2022-09-21T07:08:43;257.58;;;85.70;;
23310;SDS011;11828;51.508;18.118;2022-09-21T07:11:10;260.25;;;84.18;;
23310;SDS011;11828;51.508;18.118;2022-09-21T07:13:39;263.02;;;84.28;;
23310;SDS011;11828;51.508;18.118;2022-09-21T07:16:06;257.10;;;85.18;;
23310;SDS011;11828;51.508;18.118;2022-09-21T07:18:35;237.68;;;83.53;;
23310;SDS011;11828;51.508;18.118;2022-09-21T07:21:07;205.98;;;81.95;;
23310;SDS011;11828;51.508;18.118;2022-09-21T07:23:35;192.35;;;80.13;;
23310;SDS011;11828;51.508;18.118;2022-09-21T07:26:03;163.90;;;77.35;;
23310;SDS011;11828;51.508;18.118;2022-09-21T07:28:32;161.93;;;76.57;;
23310;SDS011;11828;51.508;18.118;2022-09-21T07:31:04;162.75;;;80.70;;
23310;SDS011;11828;51.508;18.118;2022-09-21T07:33:36;155.57;;;77.28;;
23310;SDS011;11828;51.508;18.118;2022-09-21T07:36:03;147.20;;;74.10;;
23310;SDS011;11828;51.508;18.118;2022-09-21T07:38:38;151.95;;;76.75;;
23310;SDS011;11828;51.508;18.118;2022-09-21T07:41:06;145.18;;;74.38;;
23310;SDS011;11828;51.508;18.118;2022-09-21T07:43:35;127.07;;;68.75;;
23310;SDS011;11828;51.508;18.118;2022-09-21T07:46:05;127.25;;;71.30;;
23310;SDS011;11828;51.508;18.118;2022-09-21T07:48:37;132.30;;;70.07;;
23310;SDS011;11828;51.508;18.118;2022-09-21T07:51:04;127.75;;;70.97;;
23310;SDS011;11828;51.508;18.118;2022-09-21T07:53:33;127.90;;;68.75;;
23310;SDS011;11828;51.508;18.118;2022-09-21T07:56:02;121.05;;;66.82;;
23310;SDS011;11828;51.508;18.118;2022-09-21T07:58:29;124.80;;;67.80;;
23310;SDS011;11828;51.508;18.118;2022-09-21T08:01:14;105.38;;;65.88;;
23310;SDS011;11828;51.508;18.118;2022-09-21T08:03:40;114.47;;;67.25;;
23310;SDS011;11828;51.508;18.118;2022-09-21T08:06:06;109.80;;;65.65;;
23310;SDS011;11828;51.508;18.118;2022-09-21T08:08:34;108.38;;;66.55;;
23310;SDS011;11828;51.508;18.118;2022-09-21T08:11:03;113.50;;;67.57;;
23310;SDS011;11828;51.508;18.118;2022-09-21T08:13:31;109.70;;;65.20;;
23310;SDS011;11828;51.508;18.118;2022-09-21T08:15:58;104.75;;;65.05;;
23310;SDS011;11828;51.508;18.118;2022-09-21T08:18:26;101.07;;;64.55;;
23310;SDS011;11828;51.508;18.118;2022-09-21T08:20:56;106.70;;;67.22;;
23310;SDS011;11828;51.508;18.118;2022-09-21T08:23:24;99.63;;;63.70;;
23310;SDS011;11828;51.508;18.118;2022-09-21T08:25:57;81.80;;;58.92;;
23310;SDS011;11828;51.508;18.118;2022-09-21T08:28:28;78.47;;;56.78;;
23310;SDS011;11828;51.508;18.118;2022-09-21T08:31:02;77.00;;;55.17;;
23310;SDS011;11828;51.508;18.118;2022-09-21T08:33:30;75.55;;;52.25;;
23310;SDS011;11828;51.508;18.118;2022-09-21T08:35:57;38.35;;;34.20;;
23310;SDS011;11828;51.508;18.118;2022-09-21T08:38:25;27.15;;;23.95;;
23310;SDS011;11828;51.508;18.118;2022-09-21T08:40:56;21.95;;;8.07;;
23310;SDS011;11828;51.508;18.118;2022-09-21T08:46:17;15.90;;;4.85;;
23310;SDS011;11828;51.508;18.118;2022-09-21T08:51:50;10.35;;;3.20;;
23310;SDS011;11828;51.508;18.118;2022-09-21T08:54:26;10.15;;;3.70;;
23310;SDS011;11828;51.508;18.118;2022-09-21T08:57:01;14.90;;;4.53;;
23310;SDS011;11828;51.508;18.118;2022-09-21T08:59:27;12.38;;;4.20;;
23310;SDS011;11828;51.508;18.118;2022-09-21T09:01:55;11.55;;;4.20;;
23310;SDS011;11828;51.508;18.118;2022-09-21T09:07:49;9.20;;;3.97;;
23310;SDS011;11828;51.508;18.118;2022-09-21T09:10:37;10.57;;;3.38;;
23310;SDS011;11828;51.508;18.118;2022-09-21T09:19:26;12.18;;;3.38;;
23310;SDS011;11828;51.508;18.118;2022-09-21T09:22:09;9.93;;;2.85;;
23310;SDS011;11828;51.508;18.118;2022-09-21T09:24:47;13.15;;;3.40;;
23310;SDS011;11828;51.508;18.118;2022-09-21T09:27:35;16.23;;;3.63;;
23310;SDS011;11828;51.508;18.118;2022-09-21T09:30:23;10.30;;;2.65;;
23310;SDS011;11828;51.508;18.118;2022-09-21T09:32:59;9.52;;;2.60;;
23310;SDS011;11828;51.508;18.118;2022-09-21T09:38:48;7.43;;;2.00;;
23310;SDS011;11828;51.508;18.118;2022-09-21T09:46:58;78.68;;;60.80;;
23310;SDS011;11828;51.508;18.118;2022-09-21T09:52:44;123.47;;;75.07;;
23310;SDS011;11828;51.508;18.118;2022-09-21T09:55:17;138.05;;;78.10;;
23310;SDS011;11828;51.508;18.118;2022-09-21T09:57:48;154.02;;;81.35;;
23310;SDS011;11828;51.508;18.118;2022-09-21T10:00:16;154.10;;;78.80;;
23310;SDS011;11828;51.508;18.118;2022-09-21T10:02:45;140.00;;;76.68;;
23310;SDS011;11828;51.508;18.118;2022-09-21T10:07:59;146.88;;;77.90;;
23310;SDS011;11828;51.508;18.118;2022-09-21T10:10:31;136.07;;;77.40;;
23310;SDS011;11828;51.508;18.118;2022-09-21T10:15:41;136.18;;;76.00;;
23310;SDS011;11828;51.508;18.118;2022-09-21T10:18:21;158.80;;;80.53;;
23310;SDS011;11828;51.508;18.118;2022-09-21T10:21:04;160.32;;;81.20;;
23310;SDS011;11828;51.508;18.118;2022-09-21T10:23:34;166.57;;;80.10;;
23310;SDS011;11828;51.508;18.118;2022-09-21T10:26:08;162.77;;;81.53;;
23310;SDS011;11828;51.508;18.118;2022-09-21T10:28:53;164.50;;;83.28;;
23310;SDS011;11828;51.508;18.118;2022-09-21T10:31:25;186.80;;;84.32;;
23310;SDS011;11828;51.508;18.118;2022-09-21T10:34:03;207.60;;;84.18;;
23310;SDS011;11828;51.508;18.118;2022-09-21T10:36:39;201.50;;;84.35;;
23310;SDS011;11828;51.508;18.118;2022-09-21T10:39:19;199.55;;;84.15;;
23310;SDS011;11828;51.508;18.118;2022-09-21T10:42:01;190.10;;;82.55;;
23310;SDS011;11828;51.508;18.118;2022-09-21T10:44:36;190.15;;;84.18;;
23310;SDS011;11828;51.508;18.118;2022-09-21T10:47:18;199.00;;;83.78;;
23310;SDS011;11828;51.508;18.118;2022-09-21T10:49:53;192.95;;;84.30;;
23310;SDS011;11828;51.508;18.118;2022-09-21T10:52:23;182.05;;;83.28;;
23310;SDS011;11828;51.508;18.118;2022-09-21T10:55:05;170.02;;;81.40;;
23310;SDS011;11828;51.508;18.118;2022-09-21T10:57:40;159.02;;;80.20;;
23310;SDS011;11828;51.508;18.118;2022-09-21T11:00:51;150.05;;;78.80;;
23310;SDS011;11828;51.508;18.118;2022-09-21T11:03:25;149.18;;;77.95;;
23310;SDS011;11828;51.508;18.118;2022-09-21T11:06:01;115.13;;;72.47;;
23310;SDS011;11828;51.508;18.118;2022-09-21T11:08:43;111.70;;;71.18;;
23310;SDS011;11828;51.508;18.118;2022-09-21T11:14:26;60.35;;;52.80;;
23310;SDS011;11828;51.508;18.118;2022-09-21T11:20:46;61.58;;;53.45;;
23310;SDS011;11828;51.508;18.118;2022-09-21T11:26:41;80.32;;;60.08;;
23310;SDS011;11828;51.508;18.118;2022-09-21T11:34:55;78.82;;;61.53;;
23310;SDS011;11828;51.508;18.118;2022-09-21T11:38:12;97.00;;;66.78;;
23310;SDS011;11828;51.508;18.118;2022-09-21T11:41:02;83.78;;;64.32;;
23310;SDS011;11828;51.508;18.118;2022-09-21T11:49:54;91.45;;;66.13;;
23310;SDS011;11828;51.508;18.118;2022-09-21T11:58:44;142.73;;;77.45;;
23310;SDS011;11828;51.508;18.118;2022-09-21T12:03:56;171.68;;;82.03;;
23310;SDS011;11828;51.508;18.118;2022-09-21T12:12:31;202.05;;;85.05;;
23310;SDS011;11828;51.508;18.118;2022-09-21T12:20:55;205.63;;;83.57;;
23310;SDS011;11828;51.508;18.118;2022-09-21T12:23:40;206.90;;;84.57;;
23310;SDS011;11828;51.508;18.118;2022-09-21T12:26:12;216.20;;;86.40;;
23310;SDS011;11828;51.508;18.118;2022-09-21T12:28:45;217.27;;;83.68;;
23310;SDS011;11828;51.508;18.118;2022-09-21T12:31:18;223.85;;;84.30;;
23310;SDS011;11828;51.508;18.118;2022-09-21T12:33:52;225.27;;;83.75;;
23310;SDS011;11828;51.508;18.118;2022-09-21T12:41:49;233.30;;;83.00;;
23310;SDS011;11828;51.508;18.118;2022-09-21T12:49:55;249.43;;;83.28;;
23310;SDS011;11828;51.508;18.118;2022-09-21T12:52:28;246.75;;;84.40;;
23310;SDS011;11828;51.508;18.118;2022-09-21T13:01:01;211.27;;;83.38;;
23310;SDS011;11828;51.508;18.118;2022-09-21T13:09:48;174.35;;;83.15;;
23310;SDS011;11828;51.508;18.118;2022-09-21T13:12:20;174.20;;;81.30;;
23310;SDS011;11828;51.508;18.118;2022-09-21T13:17:43;179.88;;;82.20;;
23310;SDS011;11828;51.508;18.118;2022-09-21T13:20:17;195.25;;;83.93;;
23310;SDS011;11828;51.508;18.118;2022-09-21T13:22:45;200.57;;;84.63;;
23310;SDS011;11828;51.508;18.118;2022-09-21T13:25:23;216.07;;;88.25;;
23310;SDS011;11828;51.508;18.118;2022-09-21T13:27:54;199.15;;;84.80;;
23310;SDS011;11828;51.508;18.118;2022-09-21T13:30:32;202.13;;;86.53;;
23310;SDS011;11828;51.508;18.118;2022-09-21T13:49:04;198.20;;;87.55;;
23310;SDS011;11828;51.508;18.118;2022-09-21T13:51:50;193.98;;;85.47;;
23310;SDS011;11828;51.508;18.118;2022-09-21T13:54:27;188.05;;;83.53;;
23310;SDS011;11828;51.508;18.118;2022-09-21T13:57:45;214.23;;;93.85;;
23310;SDS011;11828;51.508;18.118;2022-09-21T14:02:35;230.43;;;83.97;;
23310;SDS011;11828;51.508;18.118;2022-09-21T14:05:38;232.45;;;85.35;;
23310;SDS011;11828;51.508;18.118;2022-09-21T14:10:39;229.73;;;85.25;;
23310;SDS011;11828;51.508;18.118;2022-09-21T14:13:36;245.63;;;85.88;;
23310;SDS011;11828;51.508;18.118;2022-09-21T14:19:02;250.48;;;85.85;;
23310;SDS011;11828;51.508;18.118;2022-09-21T14:24:42;236.40;;;82.88;;
23310;SDS011;11828;51.508;18.118;2022-09-21T14:30:02;242.27;;;82.22;;
23310;SDS011;11828;51.508;18.118;2022-09-21T14:32:34;247.20;;;83.40;;
23310;SDS011;11828;51.508;18.118;2022-09-21T14:35:20;245.82;;;82.32;;
23310;SDS011;11828;51.508;18.118;2022-09-21T14:37:55;242.52;;;84.63;;
23310;SDS011;11828;51.508;18.118;2022-09-21T14:40:26;244.20;;;83.05;;
23310;SDS011;11828;51.508;18.118;2022-09-21T14:42:58;243.65;;;83.15;;
23310;SDS011;11828;51.508;18.118;2022-09-21T14:45:35;250.10;;;86.18;;
23310;SDS011;11828;51.508;18.118;2022-09-21T14:51:19;243.13;;;82.95;;
23310;SDS011;11828;51.508;18.118;2022-09-21T15:02:38;248.13;;;84.10;;
23310;SDS011;11828;51.508;18.118;2022-09-21T15:11:25;241.90;;;83.30;;
23310;SDS011;11828;51.508;18.118;2022-09-21T15:16:58;259.08;;;85.53;;
23310;SDS011;11828;51.508;18.118;2022-09-21T15:19:26;248.10;;;83.43;;
23310;SDS011;11828;51.508;18.118;2022-09-21T15:24:49;242.80;;;85.53;;
23310;SDS011;11828;51.508;18.118;2022-09-21T15:27:22;248.70;;;85.50;;
23310;SDS011;11828;51.508;18.118;2022-09-21T15:29:54;250.40;;;84.00;;
23310;SDS011;11828;51.508;18.118;2022-09-21T15:32:39;250.13;;;83.80;;
23310;SDS011;11828;51.508;18.118;2022-09-21T15:37:52;249.48;;;83.40;;
23310;SDS011;11828;51.508;18.118;2022-09-21T15:43:00;255.32;;;83.68;;
23310;SDS011;11828;51.508;18.118;2022-09-21T15:48:23;245.27;;;81.40;;
23310;SDS011;11828;51.508;18.118;2022-09-21T15:50:52;259.75;;;85.47;;
23310;SDS011;11828;51.508;18.118;2022-09-21T15:53:30;261.42;;;83.40;;
23310;SDS011;11828;51.508;18.118;2022-09-21T15:56:00;250.13;;;81.57;;
23310;SDS011;11828;51.508;18.118;2022-09-21T15:58:30;255.00;;;83.13;;
23310;SDS011;11828;51.508;18.118;2022-09-21T16:01:12;270.38;;;86.30;;
23310;SDS011;11828;51.508;18.118;2022-09-21T16:03:45;270.48;;;85.80;;
23310;SDS011;11828;51.508;18.118;2022-09-21T16:08:52;264.45;;;85.38;;
23310;SDS011;11828;51.508;18.118;2022-09-21T16:11:19;268.08;;;85.50;;
23310;SDS011;11828;51.508;18.118;2022-09-21T16:14:11;272.33;;;85.20;;
23310;SDS011;11828;51.508;18.118;2022-09-21T16:19:40;275.90;;;86.38;;
23310;SDS011;11828;51.508;18.118;2022-09-21T16:22:39;273.02;;;84.95;;
23310;SDS011;11828;51.508;18.118;2022-09-21T16:28:03;252.25;;;81.35;;
23310;SDS011;11828;51.508;18.118;2022-09-21T16:30:55;268.92;;;81.53;;
23310;SDS011;11828;51.508;18.118;2022-09-21T16:38:54;259.67;;;83.00;;
23310;SDS011;11828;51.508;18.118;2022-09-21T16:41:20;269.98;;;82.32;;
23310;SDS011;11828;51.508;18.118;2022-09-21T16:43:48;253.95;;;79.95;;
23310;SDS011;11828;51.508;18.118;2022-09-21T16:46:15;254.02;;;81.90;;
23310;SDS011;11828;51.508;18.118;2022-09-21T16:48:42;250.55;;;79.38;;
23310;SDS011;11828;51.508;18.118;2022-09-21T16:51:10;252.98;;;80.50;;
23310;SDS011;11828;51.508;18.118;2022-09-21T16:53:38;252.27;;;80.70;;
23310;SDS011;11828;51.508;18.118;2022-09-21T16:56:04;259.05;;;80.28;;
23310;SDS011;11828;51.508;18.118;2022-09-21T16:58:38;260.77;;;81.18;;
23310;SDS011;11828;51.508;18.118;2022-09-21T17:01:13;252.55;;;79.90;;
23310;SDS011;11828;51.508;18.118;2022-09-21T17:03:45;256.67;;;81.07;;
23310;SDS011;11828;51.508;18.118;2022-09-21T17:06:15;256.15;;;80.22;;
23310;SDS011;11828;51.508;18.118;2022-09-21T17:08:44;255.43;;;81.68;;
23310;SDS011;11828;51.508;18.118;2022-09-21T17:11:13;254.75;;;80.53;;
23310;SDS011;11828;51.508;18.118;2022-09-21T17:13:50;252.40;;;84.90;;
23310;SDS011;11828;51.508;18.118;2022-09-21T17:16:18;272.05;;;91.75;;
23310;SDS011;11828;51.508;18.118;2022-09-21T17:18:45;277.38;;;98.32;;
23310;SDS011;11828;51.508;18.118;2022-09-21T17:21:12;278.33;;;96.78;;
23310;SDS011;11828;51.508;18.118;2022-09-21T17:23:40;271.60;;;93.60;;
23310;SDS011;11828;51.508;18.118;2022-09-21T17:26:10;277.08;;;93.45;;
23310;SDS011;11828;51.508;18.118;2022-09-21T17:28:42;283.02;;;95.72;;
23310;SDS011;11828;51.508;18.118;2022-09-21T17:31:14;273.00;;;91.85;;
23310;SDS011;11828;51.508;18.118;2022-09-21T17:33:41;281.48;;;96.50;;
23310;SDS011;11828;51.508;18.118;2022-09-21T17:36:13;290.50;;;99.25;;
23310;SDS011;11828;51.508;18.118;2022-09-21T17:38:41;315.70;;;105.30;;
23310;SDS011;11828;51.508;18.118;2022-09-21T17:41:12;311.63;;;104.63;;
23310;SDS011;11828;51.508;18.118;2022-09-21T17:49:29;312.63;;;105.13;;
23310;SDS011;11828;51.508;18.118;2022-09-21T17:51:55;292.80;;;98.05;;
23310;SDS011;11828;51.508;18.118;2022-09-21T17:54:41;291.77;;;96.07;;
23310;SDS011;11828;51.508;18.118;2022-09-21T18:00:19;276.98;;;92.88;;
23310;SDS011;11828;51.508;18.118;2022-09-21T18:02:48;281.33;;;94.95;;
23310;SDS011;11828;51.508;18.118;2022-09-21T18:05:28;288.25;;;95.72;;
23310;SDS011;11828;51.508;18.118;2022-09-21T18:07:54;291.98;;;98.93;;
23310;SDS011;11828;51.508;18.118;2022-09-21T18:10:22;282.17;;;94.78;;
23310;SDS011;11828;51.508;18.118;2022-09-21T18:15:39;289.50;;;98.65;;
23310;SDS011;11828;51.508;18.118;2022-09-21T18:21:08;289.35;;;97.57;;
23310;SDS011;11828;51.508;18.118;2022-09-21T18:26:46;278.02;;;92.97;;
23310;SDS011;11828;51.508;18.118;2022-09-21T18:29:24;277.75;;;92.85;;